sensor_id;sensor_type;location;lat;lon;timestamp;pressure;altitude;pressure_sealevel;temperature;humidity
47260;BME280;32999;52.412;4.890;2023-03-20T00:03:40;101916.44;;;10.61;100.00
47260;BME280;32999;52.412;4.890;2023-03-20T00:08:42;101914.38;;;10.54;100.00
47260;BME280;32999;52.412;4.890;2023-03-20T00:13:45;101902.59;;;10.73;100.00
47260;BME280;32999;52.412;4.890;2023-03-20T00:18:48;101905.69;;;10.52;100.00
47260;BME280;32999;52.412;4.890;2023-03-20T00:23:49;101911.19;;;10.51;100.00
47260;BME280;32999;52.412;4.890;2023-03-20T00:28:51;101924.81;;;10.40;100.00
47260;BME280;32999;52.412;4.890;2023-03-20T00:33:55;101927.91;;;10.53;100.00
47260;BME280;32999;52.412;4.890;2023-03-20T00:38:57;101955.38;;;10.63;100.00
47260;BME280;32999;52.412;4.890;2023-03-20T00:43:59;101945.31;;;10.65;100.00
47260;BME280;32999;52.412;4.890;2023-03-20T00:49:03;101932.00;;;10.73;100.00
47260;BME280;32999;52.412;4.890;2023-03-20T00:54:04;101922.94;;;10.66;100.00
47260;BME280;32999;52.412;4.890;2023-03-20T00:59:08;101952.91;;;10.44;100.00
47260;BME280;32999;52.412;4.890;2023-03-20T01:04:16;101943.03;;;10.44;100.00
47260;BME280;32999;52.412;4.890;2023-03-20T01:09:18;101948.00;;;10.31;100.00
47260;BME280;32999;52.412;4.890;2023-03-20T01:14:19;101944.25;;;10.50;100.00
47260;BME280;32999;52.412;4.890;2023-03-20T01:19:22;101952.91;;;10.44;100.00
47260;BME280;32999;52.412;4.890;2023-03-20T01:24:24;101941.81;;;10.31;100.00
47260;BME280;32999;52.412;4.890;2023-03-20T01:29:26;101940.75;;;10.23;100.00
47260;BME280;32999;52.412;4.890;2023-03-20T01:34:30;101954.81;;;10.26;100.00
47260;BME280;32999;52.412;4.890;2023-03-20T01:39:33;101952.13;;;10.26;100.00
47260;BME280;32999;52.412;4.890;2023-03-20T01:44:35;101957.91;;;10.39;100.00
47260;BME280;32999;52.412;4.890;2023-03-20T01:54:59;101938.94;;;10.06;100.00
47260;BME280;32999;52.412;4.890;2023-03-20T02:00:03;101928.41;;;10.22;100.00
47260;BME280;32999;52.412;4.890;2023-03-20T02:05:09;101928.09;;;10.26;100.00
47260;BME280;32999;52.412;4.890;2023-03-20T02:10:13;101924.97;;;10.12;100.00
47260;BME280;32999;52.412;4.890;2023-03-20T02:15:16;101903.34;;;10.23;100.00
47260;BME280;32999;52.412;4.890;2023-03-20T02:20:21;101900.84;;;10.22;100.00
47260;BME280;32999;52.412;4.890;2023-03-20T02:25:41;101904.88;;;10.26;100.00
47260;BME280;32999;52.412;4.890;2023-03-20T02:30:47;101885.13;;;10.19;100.00
47260;BME280;32999;52.412;4.890;2023-03-20T02:41:26;101862.13;;;10.00;100.00
47260;BME280;32999;52.412;4.890;2023-03-20T02:46:31;101862.13;;;10.00;100.00
47260;BME280;32999;52.412;4.890;2023-03-20T02:51:36;101866.06;;;9.88;100.00
47260;BME280;32999;52.412;4.890;2023-03-20T02:56:44;101867.72;;;9.89;100.00
47260;BME280;32999;52.412;4.890;2023-03-20T03:01:50;101840.88;;;9.65;100.00
47260;BME280;32999;52.412;4.890;2023-03-20T03:06:53;101865.09;;;9.97;100.00
47260;BME280;32999;52.412;4.890;2023-03-20T03:12:00;101857.66;;;9.83;100.00
47260;BME280;32999;52.412;4.890;2023-03-20T03:17:03;101855.13;;;9.55;100.00
47260;BME280;32999;52.412;4.890;2023-03-20T03:22:06;101846.50;;;9.62;100.00
47260;BME280;32999;52.412;4.890;2023-03-20T03:27:11;101841.13;;;9.79;100.00
47260;BME280;32999;52.412;4.890;2023-03-20T03:32:22;101824.31;;;9.61;100.00
47260;BME280;32999;52.412;4.890;2023-03-20T03:37:30;101830.84;;;9.67;100.00
47260;BME280;32999;52.412;4.890;2023-03-20T03:42:38;101814.72;;;9.50;100.00
47260;BME280;32999;52.412;4.890;2023-03-20T03:47:42;101810.91;;;9.53;100.00
47260;BME280;32999;52.412;4.890;2023-03-20T03:52:45;101823.19;;;9.64;100.00
47260;BME280;32999;52.412;4.890;2023-03-20T03:57:53;101806.22;;;9.29;100.00
47260;BME280;32999;52.412;4.890;2023-03-20T04:02:57;101818.31;;;9.41;100.00
47260;BME280;32999;52.412;4.890;2023-03-20T04:08:00;101828.63;;;9.36;100.00
47260;BME280;32999;52.412;4.890;2023-03-20T04:13:03;101821.38;;;9.46;100.00
47260;BME280;32999;52.412;4.890;2023-03-20T04:18:04;101829.50;;;9.63;100.00
47260;BME280;32999;52.412;4.890;2023-03-20T04:23:06;101814.00;;;9.66;100.00
47260;BME280;32999;52.412;4.890;2023-03-20T04:28:09;101823.41;;;9.52;100.00
47260;BME280;32999;52.412;4.890;2023-03-20T04:33:15;101820.28;;;9.57;100.00
47260;BME280;32999;52.412;4.890;2023-03-20T04:38:17;101810.59;;;9.56;100.00
47260;BME280;32999;52.412;4.890;2023-03-20T04:43:20;101801.56;;;9.31;100.00
47260;BME280;32999;52.412;4.890;2023-03-20T04:48:22;101798.41;;;9.53;100.00
47260;BME280;32999;52.412;4.890;2023-03-20T04:53:24;101795.44;;;9.57;100.00
47260;BME280;32999;52.412;4.890;2023-03-20T04:58:26;101795.97;;;9.60;100.00
47260;BME280;32999;52.412;4.890;2023-03-20T05:03:28;101791.69;;;9.49;100.00
47260;BME280;32999;52.412;4.890;2023-03-20T05:08:29;101792.63;;;9.40;100.00
47260;BME280;32999;52.412;4.890;2023-03-20T05:13:33;101793.81;;;9.20;100.00
47260;BME280;32999;52.412;4.890;2023-03-20T05:18:36;101790.28;;;9.19;100.00
47260;BME280;32999;52.412;4.890;2023-03-20T05:23:44;101794.63;;;9.38;100.00
47260;BME280;32999;52.412;4.890;2023-03-20T05:28:47;101796.78;;;9.35;100.00
47260;BME280;32999;52.412;4.890;2023-03-20T05:33:48;101794.72;;;9.29;100.00
47260;BME280;32999;52.412;4.890;2023-03-20T05:44:05;101791.31;;;9.44;100.00
47260;BME280;32999;52.412;4.890;2023-03-20T05:49:06;101788.97;;;9.41;100.00
47260;BME280;32999;52.412;4.890;2023-03-20T05:54:08;101803.09;;;9.34;100.00
47260;BME280;32999;52.412;4.890;2023-03-20T05:59:11;101802.03;;;9.27;100.00
47260;BME280;32999;52.412;4.890;2023-03-20T06:04:12;101805.22;;;9.30;100.00
47260;BME280;32999;52.412;4.890;2023-03-20T06:09:14;101807.44;;;9.17;100.00
47260;BME280;32999;52.412;4.890;2023-03-20T06:14:17;101806.09;;;9.13;100.00
47260;BME280;32999;52.412;4.890;2023-03-20T06:19:18;101804.19;;;9.05;100.00
47260;BME280;32999;52.412;4.890;2023-03-20T06:24:20;101751.88;;;8.86;100.00
47260;BME280;32999;52.412;4.890;2023-03-20T06:29:23;101804.16;;;9.23;100.00
47260;BME280;32999;52.412;4.890;2023-03-20T06:34:25;101810.84;;;9.45;100.00
47260;BME280;32999;52.412;4.890;2023-03-20T06:39:26;101813.09;;;9.14;100.00
47260;BME280;32999;52.412;4.890;2023-03-20T06:44:30;101809.31;;;9.42;100.00
47260;BME280;32999;52.412;4.890;2023-03-20T06:49:31;101806.44;;;9.36;100.00
47260;BME280;32999;52.412;4.890;2023-03-20T06:54:32;101789.56;;;9.09;100.00
47260;BME280;32999;52.412;4.890;2023-03-20T06:59:35;101818.34;;;9.24;100.00
47260;BME280;32999;52.412;4.890;2023-03-20T07:04:37;101821.94;;;9.32;100.00
47260;BME280;32999;52.412;4.890;2023-03-20T07:09:39;101832.34;;;9.61;100.00
47260;BME280;32999;52.412;4.890;2023-03-20T07:14:42;101825.72;;;9.30;100.00
47260;BME280;32999;52.412;4.890;2023-03-20T07:19:44;101833.72;;;9.47;100.00
47260;BME280;32999;52.412;4.890;2023-03-20T07:24:46;101830.69;;;9.68;100.00
47260;BME280;32999;52.412;4.890;2023-03-20T07:29:49;101837.00;;;9.41;100.00
47260;BME280;32999;52.412;4.890;2023-03-20T07:34:51;101835.56;;;9.29;100.00
47260;BME280;32999;52.412;4.890;2023-03-20T07:39:52;101832.88;;;9.47;100.00
47260;BME280;32999;52.412;4.890;2023-03-20T07:44:55;101836.91;;;9.51;100.00
47260;BME280;32999;52.412;4.890;2023-03-20T07:49:57;101838.13;;;9.57;100.00
47260;BME280;32999;52.412;4.890;2023-03-20T07:54:58;101839.44;;;9.52;100.00
47260;BME280;32999;52.412;4.890;2023-03-20T08:00:02;101830.50;;;9.62;100.00
47260;BME280;32999;52.412;4.890;2023-03-20T08:05:09;101847.00;;;9.04;100.00
47260;BME280;32999;52.412;4.890;2023-03-20T08:10:11;101848.22;;;9.27;100.00
47260;BME280;32999;52.412;4.890;2023-03-20T08:15:14;101855.91;;;9.48;100.00
47260;BME280;32999;52.412;4.890;2023-03-20T08:20:16;101855.50;;;9.61;100.00
47260;BME280;32999;52.412;4.890;2023-03-20T08:25:18;101858.50;;;9.58;100.00
47260;BME280;32999;52.412;4.890;2023-03-20T08:30:22;101853.31;;;9.56;100.00
47260;BME280;32999;52.412;4.890;2023-03-20T08:35:24;101851.47;;;9.57;100.00
47260;BME280;32999;52.412;4.890;2023-03-20T08:40:25;101855.03;;;9.65;100.00
47260;BME280;32999;52.412;4.890;2023-03-20T08:45:28;101841.53;;;9.67;100.00
47260;BME280;32999;52.412;4.890;2023-03-20T08:50:30;101844.59;;;9.54;100.00
47260;BME280;32999;52.412;4.890;2023-03-20T08:55:32;101847.09;;;9.73;100.00
47260;BME280;32999;52.412;4.890;2023-03-20T09:00:35;101846.22;;;9.65;100.00
47260;BME280;32999;52.412;4.890;2023-03-20T09:05:37;101838.75;;;9.76;100.00
47260;BME280;32999;52.412;4.890;2023-03-20T09:10:38;101841.44;;;10.02;100.00
47260;BME280;32999;52.412;4.890;2023-03-20T09:15:42;101842.28;;;9.77;100.00
47260;BME280;32999;52.412;4.890;2023-03-20T09:20:43;101833.84;;;9.64;100.00
47260;BME280;32999;52.412;4.890;2023-03-20T09:25:45;101839.13;;;9.55;100.00
47260;BME280;32999;52.412;4.890;2023-03-20T09:30:48;101833.84;;;9.64;100.00
47260;BME280;32999;52.412;4.890;2023-03-20T09:35:50;101828.25;;;9.75;100.00
47260;BME280;32999;52.412;4.890;2023-03-20T09:40:52;101841.53;;;9.67;100.00
47260;BME280;32999;52.412;4.890;2023-03-20T09:45:58;101853.41;;;9.98;100.00
47260;BME280;32999;52.412;4.890;2023-03-20T09:51:03;101855.78;;;10.01;100.00
47260;BME280;32999;52.412;4.890;2023-03-20T09:56:09;101846.09;;;10.00;100.00
47260;BME280;32999;52.412;4.890;2023-03-20T10:01:15;101853.34;;;9.90;100.00
47260;BME280;32999;52.412;4.890;2023-03-20T10:06:19;101846.16;;;9.82;100.00
47260;BME280;32999;52.412;4.890;2023-03-20T10:16:43;101847.38;;;9.88;100.00
47260;BME280;32999;52.412;4.890;2023-03-20T10:21:48;101842.88;;;9.71;100.00
47260;BME280;32999;52.412;4.890;2023-03-20T10:26:52;101825.69;;;9.47;100.00
47260;BME280;32999;52.412;4.890;2023-03-20T10:31:58;101841.47;;;9.59;100.00
47260;BME280;32999;52.412;4.890;2023-03-20T10:37:10;101826.66;;;9.38;100.00
47260;BME280;32999;52.412;4.890;2023-03-20T10:42:19;101829.44;;;9.54;100.00
47260;BME280;32999;52.412;4.890;2023-03-20T10:47:25;101830.81;;;9.59;100.00
47260;BME280;32999;52.412;4.890;2023-03-20T10:52:30;101835.56;;;9.73;100.00
47260;BME280;32999;52.412;4.890;2023-03-20T10:57:32;101827.72;;;9.97;100.00
47260;BME280;32999;52.412;4.890;2023-03-20T11:02:38;101831.13;;;10.15;100.00
47260;BME280;32999;52.412;4.890;2023-03-20T11:07:41;101822.09;;;10.08;100.00
47260;BME280;32999;52.412;4.890;2023-03-20T11:12:43;101822.78;;;10.10;100.00
47260;BME280;32999;52.412;4.890;2023-03-20T11:17:51;101819.31;;;9.92;100.00
47260;BME280;32999;52.412;4.890;2023-03-20T11:22:57;101830.66;;;9.86;100.00
47260;BME280;32999;52.412;4.890;2023-03-20T11:33:17;101809.44;;;10.18;100.00
47260;BME280;32999;52.412;4.890;2023-03-20T11:38:19;101804.25;;;10.09;100.00
47260;BME280;32999;52.412;4.890;2023-03-20T11:43:21;101820.75;;;10.04;100.00
47260;BME280;32999;52.412;4.890;2023-03-20T11:48:25;101817.25;;;10.04;100.00
47260;BME280;32999;52.412;4.890;2023-03-20T11:53:33;101814.19;;;10.25;100.00
47260;BME280;32999;52.412;4.890;2023-03-20T11:58:36;101806.09;;;10.08;100.00
47260;BME280;32999;52.412;4.890;2023-03-20T12:03:42;101812.56;;;10.06;100.00
47260;BME280;32999;52.412;4.890;2023-03-20T12:08:45;101806.50;;;10.21;100.00
47260;BME280;32999;52.412;4.890;2023-03-20T12:13:48;101812.53;;;10.23;100.00
47260;BME280;32999;52.412;4.890;2023-03-20T12:18:53;101803.50;;;10.25;100.00
47260;BME280;32999;52.412;4.890;2023-03-20T12:23:57;101799.69;;;10.27;100.00
47260;BME280;32999;52.412;4.890;2023-03-20T12:29:02;101793.28;;;10.20;100.00
47260;BME280;32999;52.412;4.890;2023-03-20T12:34:08;101798.47;;;10.21;100.00
47260;BME280;32999;52.412;4.890;2023-03-20T12:39:13;101797.16;;;10.26;100.00
47260;BME280;32999;52.412;4.890;2023-03-20T12:44:19;101801.25;;;10.46;100.00
47260;BME280;32999;52.412;4.890;2023-03-20T12:49:28;101794.53;;;10.42;100.00
47260;BME280;32999;52.412;4.890;2023-03-20T12:54:36;101788.31;;;10.25;100.00
47260;BME280;32999;52.412;4.890;2023-03-20T12:59:45;101784.38;;;10.45;100.00
47260;BME280;32999;52.412;4.890;2023-03-20T13:04:54;101781.69;;;10.37;100.00
47260;BME280;32999;52.412;4.890;2023-03-20T13:10:02;101783.69;;;10.35;100.00
47260;BME280;32999;52.412;4.890;2023-03-20T13:15:14;101768.50;;;10.36;100.00
47260;BME280;32999;52.412;4.890;2023-03-20T13:20:24;101772.38;;;10.15;100.00
47260;BME280;32999;52.412;4.890;2023-03-20T13:25:32;101770.38;;;10.17;100.00
47260;BME280;32999;52.412;4.890;2023-03-20T13:30:39;101768.22;;;10.13;100.00
47260;BME280;32999;52.412;4.890;2023-03-20T13:35:46;101769.09;;;10.21;100.00
47260;BME280;32999;52.412;4.890;2023-03-20T13:40:52;101766.50;;;10.38;100.00
47260;BME280;32999;52.412;4.890;2023-03-20T13:45:55;101761.16;;;10.38;100.00
47260;BME280;32999;52.412;4.890;2023-03-20T13:51:03;101771.84;;;10.38;100.00
47260;BME280;32999;52.412;4.890;2023-03-20T13:56:09;101759.47;;;10.37;100.00
47260;BME280;32999;52.412;4.890;2023-03-20T14:01:15;101761.16;;;10.38;100.00
47260;BME280;32999;52.412;4.890;2023-03-20T14:06:44;101755.25;;;10.26;100.00
47260;BME280;32999;52.412;4.890;2023-03-20T14:11:46;101759.56;;;10.19;100.00
47260;BME280;32999;52.412;4.890;2023-03-20T14:16:48;101757.81;;;10.36;100.00
47260;BME280;32999;52.412;4.890;2023-03-20T14:22:01;101765.50;;;10.39;100.00
47260;BME280;32999;52.412;4.890;2023-03-20T14:27:03;101756.53;;;10.56;100.00
47260;BME280;32999;52.412;4.890;2023-03-20T14:32:22;101757.50;;;10.39;100.00
47260;BME280;32999;52.412;4.890;2023-03-20T14:37:36;101748.16;;;10.51;100.00
47260;BME280;32999;52.412;4.890;2023-03-20T14:42:41;101747.78;;;10.46;100.00
47260;BME280;32999;52.412;4.890;2023-03-20T14:47:44;101735.06;;;10.40;100.00
47260;BME280;32999;52.412;4.890;2023-03-20T14:52:55;101744.19;;;10.63;100.00
47260;BME280;32999;52.412;4.890;2023-03-20T14:58:03;101738.44;;;10.50;100.00
47260;BME280;32999;52.412;4.890;2023-03-20T15:03:06;101742.09;;;10.41;100.00
47260;BME280;32999;52.412;4.890;2023-03-20T15:08:13;101732.09;;;10.43;100.00
47260;BME280;32999;52.412;4.890;2023-03-20T15:13:16;101735.13;;;10.56;100.00
47260;BME280;32999;52.412;4.890;2023-03-20T15:18:20;101730.25;;;10.35;100.00
47260;BME280;32999;52.412;4.890;2023-03-20T15:23:23;101731.38;;;10.25;100.00
47260;BME280;32999;52.412;4.890;2023-03-20T15:28:26;101730.31;;;10.17;100.00
47260;BME280;32999;52.412;4.890;2023-03-20T15:33:31;101732.56;;;10.30;100.00
47260;BME280;32999;52.412;4.890;2023-03-20T15:38:34;101728.56;;;10.42;100.00
47260;BME280;32999;52.412;4.890;2023-03-20T15:43:36;101724.50;;;10.22;100.00
47260;BME280;32999;52.412;4.890;2023-03-20T15:48:38;101727.75;;;10.34;100.00
47260;BME280;32999;52.412;4.890;2023-03-20T15:53:43;101724.91;;;10.35;100.00
47260;BME280;32999;52.412;4.890;2023-03-20T15:58:47;101718.41;;;10.38;100.00
47260;BME280;32999;52.412;4.890;2023-03-20T16:03:51;101715.69;;;10.30;100.00
47260;BME280;32999;52.412;4.890;2023-03-20T16:08:59;101713.75;;;10.56;100.00
47260;BME280;32999;52.412;4.890;2023-03-20T16:14:01;101716.72;;;10.37;100.00
47260;BME280;32999;52.412;4.890;2023-03-20T16:19:04;101714.88;;;10.29;100.00
47260;BME280;32999;52.412;4.890;2023-03-20T16:24:08;101712.53;;;10.34;100.00
47260;BME280;32999;52.412;4.890;2023-03-20T16:29:12;101722.91;;;10.37;100.00
47260;BME280;32999;52.412;4.890;2023-03-20T16:34:16;101716.28;;;10.15;100.00
47260;BME280;32999;52.412;4.890;2023-03-20T16:39:20;101716.59;;;10.04;100.00
47260;BME280;32999;52.412;4.890;2023-03-20T16:44:27;101725.97;;;10.08;100.00
47260;BME280;32999;52.412;4.890;2023-03-20T16:49:48;101728.97;;;10.13;100.00
47260;BME280;32999;52.412;4.890;2023-03-20T16:54:52;101720.44;;;10.10;100.00
47260;BME280;32999;52.412;4.890;2023-03-20T16:59:57;101717.09;;;10.08;100.00
47260;BME280;32999;52.412;4.890;2023-03-20T17:05:01;101714.38;;;10.34;100.00
47260;BME280;32999;52.412;4.890;2023-03-20T17:10:16;101718.41;;;10.38;100.00
47260;BME280;32999;52.412;4.890;2023-03-20T17:15:20;101708.88;;;10.35;100.00
47260;BME280;32999;52.412;4.890;2023-03-20T17:20:23;101716.66;;;10.20;100.00
47260;BME280;32999;52.412;4.890;2023-03-20T17:25:26;101718.34;;;10.21;100.00
47260;BME280;32999;52.412;4.890;2023-03-20T17:30:28;101720.63;;;10.16;100.00
47260;BME280;32999;52.412;4.890;2023-03-20T17:35:29;101713.13;;;10.12;100.00
47260;BME280;32999;52.412;4.890;2023-03-20T17:40:36;101730.25;;;10.01;100.00
47260;BME280;32999;52.412;4.890;2023-03-20T17:45:37;101734.97;;;10.07;100.00
47260;BME280;32999;52.412;4.890;2023-03-20T17:50:39;101726.91;;;9.99;100.00
47260;BME280;32999;52.412;4.890;2023-03-20T17:55:42;101721.19;;;9.86;100.00
47260;BME280;32999;52.412;4.890;2023-03-20T18:00:43;101727.06;;;9.98;100.00
47260;BME280;32999;52.412;4.890;2023-03-20T18:05:45;101732.72;;;9.95;100.00
47260;BME280;32999;52.412;4.890;2023-03-20T18:10:57;101731.50;;;9.81;100.00
47260;BME280;32999;52.412;4.890;2023-03-20T18:16:02;101739.63;;;10.05;100.00
47260;BME280;32999;52.412;4.890;2023-03-20T18:21:04;101737.00;;;10.13;100.00
47260;BME280;32999;52.412;4.890;2023-03-20T18:26:11;101740.00;;;10.10;100.00
47260;BME280;32999;52.412;4.890;2023-03-20T18:31:16;101739.00;;;10.11;100.00
47260;BME280;32999;52.412;4.890;2023-03-20T18:36:19;101737.47;;;10.17;100.00
47260;BME280;32999;52.412;4.890;2023-03-20T18:41:23;101736.41;;;10.28;100.00
47260;BME280;32999;52.412;4.890;2023-03-20T18:46:24;101731.41;;;10.41;100.00
47260;BME280;32999;52.412;4.890;2023-03-20T18:51:26;101729.09;;;10.38;100.00
47260;BME280;32999;52.412;4.890;2023-03-20T18:56:29;101729.94;;;10.04;100.00
47260;BME280;32999;52.412;4.890;2023-03-20T19:01:33;101731.31;;;10.16;100.00
47260;BME280;32999;52.412;4.890;2023-03-20T19:06:34;101728.72;;;10.41;100.00
47260;BME280;32999;52.412;4.890;2023-03-20T19:11:37;101736.56;;;10.26;100.00
47260;BME280;32999;52.412;4.890;2023-03-20T19:16:39;101733.41;;;10.31;100.00
47260;BME280;32999;52.412;4.890;2023-03-20T19:21:41;101727.88;;;10.24;100.00
47260;BME280;32999;52.412;4.890;2023-03-20T19:26:44;101725.81;;;10.18;100.00
47260;BME280;32999;52.412;4.890;2023-03-20T19:31:45;101727.47;;;10.11;100.00
47260;BME280;32999;52.412;4.890;2023-03-20T19:36:47;101729.63;;;10.15;100.00
47260;BME280;32999;52.412;4.890;2023-03-20T19:41:50;101731.25;;;10.00;100.00
47260;BME280;32999;52.412;4.890;2023-03-20T19:46:51;101722.81;;;10.13;100.00
47260;BME280;32999;52.412;4.890;2023-03-20T19:51:54;101720.44;;;10.10;100.00
47260;BME280;32999;52.412;4.890;2023-03-20T19:56:57;101720.00;;;10.22;100.00
47260;BME280;32999;52.412;4.890;2023-03-20T20:01:59;101713.91;;;10.38;100.00
47260;BME280;32999;52.412;4.890;2023-03-20T20:07:00;101706.66;;;10.22;100.00
47260;BME280;32999;52.412;4.890;2023-03-20T20:12:03;101702.66;;;10.27;100.00
47260;BME280;32999;52.412;4.890;2023-03-20T20:17:05;101695.22;;;10.04;100.00
47260;BME280;32999;52.412;4.890;2023-03-20T20:22:06;101692.66;;;9.95;100.00
47260;BME280;32999;52.412;4.890;2023-03-20T20:27:09;101700.75;;;10.11;100.00
47260;BME280;32999;52.412;4.890;2023-03-20T20:32:12;101698.50;;;9.90;100.00
47260;BME280;32999;52.412;4.890;2023-03-20T20:37:13;101700.91;;;10.09;100.00
47260;BME280;32999;52.412;4.890;2023-03-20T20:42:17;101701.41;;;10.05;100.00
47260;BME280;32999;52.412;4.890;2023-03-20T20:47:19;101703.91;;;10.06;100.00
47260;BME280;32999;52.412;4.890;2023-03-20T20:52:20;101707.94;;;10.10;100.00
47260;BME280;32999;52.412;4.890;2023-03-20T20:57:23;101698.72;;;10.05;100.00
47260;BME280;32999;52.412;4.890;2023-03-20T21:02:26;101703.59;;;10.17;100.00
47260;BME280;32999;52.412;4.890;2023-03-20T21:07:28;101699.09;;;10.10;100.00
47260;BME280;32999;52.412;4.890;2023-03-20T21:12:31;101698.25;;;10.09;100.00
47260;BME280;32999;52.412;4.890;2023-03-20T21:17:33;101693.16;;;9.90;100.00
47260;BME280;32999;52.412;4.890;2023-03-20T21:22:34;101703.66;;;10.26;100.00
47260;BME280;32999;52.412;4.890;2023-03-20T21:27:37;101703.00;;;10.32;100.00
47260;BME280;32999;52.412;4.890;2023-03-20T21:32:39;101703.72;;;10.00;100.00
47260;BME280;32999;52.412;4.890;2023-03-20T21:37:43;101701.88;;;10.00;100.00
47260;BME280;32999;52.412;4.890;2023-03-20T21:43:00;101708.09;;;10.09;100.00
47260;BME280;32999;52.412;4.890;2023-03-20T21:48:03;101696.25;;;10.11;100.00
47260;BME280;32999;52.412;4.890;2023-03-20T21:53:04;101697.97;;;10.20;100.00
47260;BME280;32999;52.412;4.890;2023-03-20T21:58:07;101691.66;;;10.30;100.00
47260;BME280;32999;52.412;4.890;2023-03-20T22:03:09;101692.28;;;10.23;100.00
47260;BME280;32999;52.412;4.890;2023-03-20T22:08:10;101697.66;;;10.32;100.00
47260;BME280;32999;52.412;4.890;2023-03-20T22:13:14;101688.94;;;10.21;100.00
47260;BME280;32999;52.412;4.890;2023-03-20T22:18:15;101693.50;;;10.29;100.00
47260;BME280;32999;52.412;4.890;2023-03-20T22:23:17;101691.81;;;10.28;100.00
47260;BME280;32999;52.412;4.890;2023-03-20T22:28:20;101688.16;;;10.45;100.00
47260;BME280;32999;52.412;4.890;2023-03-20T22:33:21;101694.00;;;10.33;100.00
47260;BME280;32999;52.412;4.890;2023-03-20T22:38:23;101697.91;;;10.63;100.00
47260;BME280;32999;52.412;4.890;2023-03-20T22:43:26;101688.00;;;10.47;100.00
47260;BME280;32999;52.412;4.890;2023-03-20T22:48:28;101687.69;;;10.58;100.00
47260;BME280;32999;52.412;4.890;2023-03-20T22:53:29;101676.28;;;10.40;100.00
47260;BME280;32999;52.412;4.890;2023-03-20T22:58:32;101679.81;;;10.48;100.00
47260;BME280;32999;52.412;4.890;2023-03-20T23:03:34;101674.97;;;10.44;100.00
47260;BME280;32999;52.412;4.890;2023-03-20T23:08:36;101674.28;;;10.42;100.00
47260;BME280;32999;52.412;4.890;2023-03-20T23:13:39;101670.78;;;10.41;100.00
47260;BME280;32999;52.412;4.890;2023-03-20T23:18:41;101669.44;;;10.45;100.00
47260;BME280;32999;52.412;4.890;2023-03-20T23:23:42;101666.97;;;10.36;100.00
47260;BME280;32999;52.412;4.890;2023-03-20T23:28:46;101664.09;;;10.45;100.00
47260;BME280;32999;52.412;4.890;2023-03-20T23:33:48;101662.28;;;10.54;100.00
47260;BME280;32999;52.412;4.890;2023-03-20T23:38:50;101663.44;;;10.43;100.00
47260;BME280;32999;52.412;4.890;2023-03-20T23:43:53;101662.13;;;10.39;100.00
47260;BME280;32999;52.412;4.890;2023-03-20T23:48:55;101661.94;;;10.33;100.00
47260;BME280;32999;52.412;4.890;2023-03-20T23:53:56;101659.09;;;10.34;100.00
47260;BME280;32999;52.412;4.890;2023-03-20T23:58:59;101654.41;;;10.44;100.00
